createdAt,value
2022-08-02T00:00:35.223Z,99.90
2022-08-02T00:03:07.936Z,99.90
2022-08-02T00:05:35.069Z,99.90
2022-08-02T00:08:02.015Z,99.90
2022-08-02T00:10:29.112Z,99.90
2022-08-02T00:12:57.965Z,99.90
2022-08-02T00:15:25.140Z,99.90
2022-08-02T00:17:52.058Z,99.90
2022-08-02T00:20:19.490Z,99.90
2022-08-02T00:22:46.419Z,99.90
2022-08-02T00:25:13.338Z,99.90
2022-08-02T00:27:40.543Z,99.90
2022-08-02T00:30:07.977Z,99.90
2022-08-02T00:32:34.964Z,99.90
2022-08-02T00:35:02.062Z,99.90
2022-08-02T00:37:28.990Z,99.90
2022-08-02T00:39:57.422Z,99.90
2022-08-02T00:42:24.618Z,99.90
2022-08-02T00:44:51.608Z,99.90
2022-08-02T00:47:19.443Z,99.90
2022-08-02T00:49:47.462Z,99.90
2022-08-02T00:52:14.814Z,99.90
2022-08-02T00:54:42.003Z,99.90
2022-08-02T00:57:09.248Z,99.90
2022-08-02T00:59:36.259Z,99.90
2022-08-02T01:02:03.194Z,99.90
2022-08-02T01:04:32.237Z,99.90
2022-08-02T01:07:01.224Z,99.90
2022-08-02T01:09:28.459Z,99.90
2022-08-02T01:11:56.229Z,99.90
2022-08-02T01:14:24.911Z,99.90
2022-08-02T01:17:28.972Z,99.90
2022-08-02T01:20:04.891Z,99.90
2022-08-02T01:23:02.142Z,99.90
2022-08-02T01:25:46.778Z,99.90
2022-08-02T01:28:19.636Z,99.90
2022-08-02T01:30:50.467Z,99.90
2022-08-02T01:33:21.055Z,99.90
2022-08-02T01:35:54.234Z,99.90
2022-08-02T01:38:27.651Z,99.90
2022-08-02T01:40:56.549Z,99.90
2022-08-02T01:43:25.704Z,99.90
2022-08-02T01:45:54.062Z,99.90
2022-08-02T01:48:23.347Z,99.90
2022-08-02T01:50:51.968Z,99.90
2022-08-02T01:53:22.205Z,99.90
2022-08-02T01:55:58.358Z,99.90
2022-08-02T01:58:30.096Z,99.90
2022-08-02T02:00:59.481Z,99.90
2022-08-02T02:03:29.075Z,99.90
2022-08-02T02:05:59.100Z,99.90
2022-08-02T02:08:32.907Z,99.90
2022-08-02T02:12:11.815Z,99.90
2022-08-02T02:13:50.302Z,99.90
2022-08-02T02:16:19.593Z,99.90
2022-08-02T02:18:48.939Z,99.90
2022-08-02T02:21:16.708Z,99.90
2022-08-02T02:23:43.715Z,99.90
2022-08-02T02:26:13.725Z,99.90
2022-08-02T02:28:43.383Z,99.90
2022-08-02T02:31:14.073Z,99.90
2022-08-02T02:33:48.754Z,99.90
2022-08-02T02:36:17.812Z,99.90
2022-08-02T02:38:46.353Z,99.90
2022-08-02T02:41:14.600Z,99.90
2022-08-02T02:43:43.729Z,99.90
2022-08-02T02:46:12.705Z,99.90
2022-08-02T02:48:40.655Z,99.90
2022-08-02T02:51:14.085Z,99.90
2022-08-02T02:54:32.531Z,99.90
2022-08-02T02:56:30.799Z,99.90
2022-08-02T02:59:00.770Z,99.90
2022-08-02T03:01:55.418Z,99.90
2022-08-02T03:04:16.123Z,99.90
2022-08-02T03:06:43.241Z,99.90
2022-08-02T03:09:11.608Z,99.90
2022-08-02T03:11:40.716Z,99.90
2022-08-02T03:14:11.119Z,99.90
2022-08-02T03:16:50.475Z,99.90
2022-08-02T03:19:18.779Z,99.90
2022-08-02T03:21:47.174Z,99.90
2022-08-02T03:24:14.689Z,99.90
2022-08-02T03:26:42.045Z,99.90
2022-08-02T03:29:09.963Z,99.90
2022-08-02T03:31:41.835Z,99.90
2022-08-02T03:34:10.053Z,99.90
2022-08-02T03:36:39.151Z,99.90
2022-08-02T03:39:07.535Z,99.90
2022-08-02T03:41:36.955Z,99.90
2022-08-02T03:44:04.827Z,99.90
2022-08-02T03:46:32.458Z,99.90
2022-08-02T03:49:00.544Z,99.90
2022-08-02T03:51:27.777Z,99.90
2022-08-02T03:53:55.865Z,99.90
2022-08-02T03:56:23.613Z,99.90
2022-08-02T03:58:50.719Z,99.90
2022-08-02T04:01:17.667Z,99.90
2022-08-02T04:03:44.846Z,99.90
2022-08-02T04:06:11.726Z,99.90
2022-08-02T04:08:39.077Z,99.90
2022-08-02T04:11:25.662Z,99.90
2022-08-02T04:13:54.726Z,99.90
2022-08-02T04:16:32.238Z,99.90
2022-08-02T04:19:02.737Z,99.90
2022-08-02T04:21:49.955Z,99.90
2022-08-02T04:24:24.599Z,99.90
2022-08-02T04:27:03.427Z,99.90
2022-08-02T04:29:35.236Z,99.90
2022-08-02T04:32:03.684Z,99.90
2022-08-02T04:34:31.367Z,99.90
2022-08-02T04:36:59.831Z,99.90
2022-08-02T04:39:28.053Z,99.90
2022-08-02T04:41:57.720Z,99.90
2022-08-02T04:44:25.270Z,99.90
2022-08-02T04:46:52.866Z,99.90
2022-08-02T04:49:19.953Z,99.90
2022-08-02T04:51:47.063Z,99.90
2022-08-02T04:54:14.217Z,99.90
2022-08-02T04:56:41.390Z,99.90
2022-08-02T04:59:08.817Z,99.90
2022-08-02T05:01:36.057Z,99.90
2022-08-02T05:04:03.156Z,99.90
2022-08-02T05:06:30.044Z,99.90
2022-08-02T05:08:57.193Z,99.90
2022-08-02T05:11:36.037Z,99.90
2022-08-02T05:14:05.444Z,99.90
2022-08-02T05:16:32.660Z,99.90
2022-08-02T05:19:00.947Z,99.90
2022-08-02T05:21:28.598Z,99.90
2022-08-02T05:23:55.486Z,99.90
2022-08-02T05:26:23.625Z,99.90
2022-08-02T05:28:50.784Z,99.90
2022-08-02T05:31:17.679Z,99.90
2022-08-02T05:33:44.571Z,99.90
2022-08-02T05:36:11.731Z,99.90
2022-08-02T05:38:38.657Z,99.90
2022-08-02T05:41:06.548Z,99.90
2022-08-02T05:43:33.858Z,99.90
2022-08-02T05:46:00.866Z,99.90
2022-08-02T05:48:31.863Z,99.90
2022-08-02T05:51:11.013Z,99.90
2022-08-02T05:53:46.415Z,99.90
2022-08-02T05:56:29.859Z,99.90
2022-08-02T05:59:18.516Z,99.90
2022-08-02T06:01:48.637Z,99.90
2022-08-02T06:04:26.418Z,99.90
2022-08-02T06:06:59.147Z,99.90
2022-08-02T06:09:27.229Z,99.90
2022-08-02T06:12:10.912Z,99.90
2022-08-02T06:14:38.055Z,99.90
2022-08-02T06:17:05.973Z,99.90
2022-08-02T06:19:46.779Z,99.90
2022-08-02T06:22:35.711Z,99.90
2022-08-02T06:25:05.511Z,99.90
2022-08-02T06:27:33.986Z,99.90
2022-08-02T06:30:02.418Z,99.90
2022-08-02T06:32:29.369Z,99.90
2022-08-02T06:34:56.702Z,99.90
2022-08-02T06:37:47.315Z,99.90
2022-08-02T06:40:43.878Z,99.90
2022-08-02T06:43:30.791Z,99.90
2022-08-02T06:46:34.444Z,99.90
2022-08-02T06:48:45.458Z,99.90
2022-08-02T06:51:13.217Z,99.90
2022-08-02T06:53:40.389Z,99.90
2022-08-02T06:56:07.341Z,99.90
2022-08-02T06:58:36.359Z,99.90
2022-08-02T07:01:07.200Z,99.90
2022-08-02T07:03:34.763Z,99.90
2022-08-02T07:06:01.998Z,99.90
2022-08-02T07:08:36.263Z,99.90
2022-08-02T07:11:04.878Z,99.90
2022-08-02T07:13:34.741Z,99.90
2022-08-02T07:16:05.534Z,99.90
2022-08-02T07:18:32.456Z,99.90
2022-08-02T07:20:59.326Z,99.90
2022-08-02T07:23:26.519Z,99.90
2022-08-02T07:26:02.680Z,99.90
2022-08-02T07:28:31.435Z,99.90
2022-08-02T07:30:58.731Z,99.90
2022-08-02T07:33:38.059Z,99.90
2022-08-02T07:36:09.623Z,99.90
2022-08-02T07:38:40.823Z,99.90
2022-08-02T07:41:08.191Z,99.90
2022-08-02T07:43:35.594Z,99.90
2022-08-02T07:46:02.554Z,99.90
2022-08-02T07:48:29.727Z,99.90
2022-08-02T07:50:57.701Z,99.90
2022-08-02T07:53:50.314Z,99.90
2022-08-02T07:56:12.561Z,99.90
2022-08-02T07:58:41.686Z,99.90
2022-08-02T08:01:09.940Z,99.90
2022-08-02T08:03:37.071Z,99.90
2022-08-02T08:06:04.108Z,99.90
2022-08-02T08:08:31.102Z,99.90
2022-08-02T08:10:58.208Z,99.90
2022-08-02T08:13:25.144Z,99.90
2022-08-02T08:15:52.718Z,98.90
2022-08-02T08:18:21.822Z,97.80
2022-08-02T08:20:48.807Z,98.70
2022-08-02T08:23:15.745Z,99.90
2022-08-02T08:25:42.847Z,99.90
2022-08-02T08:28:10.248Z,99.90
2022-08-02T08:30:37.262Z,99.90
2022-08-02T08:33:04.650Z,97.80
2022-08-02T08:35:31.703Z,95.20
2022-08-02T08:37:58.580Z,96.70
2022-08-02T08:40:26.185Z,97.00
2022-08-02T08:42:53.403Z,97.70
2022-08-02T08:45:20.325Z,96.20
2022-08-02T08:47:52.534Z,87.70
2022-08-02T08:50:25.425Z,73.60
2022-08-02T08:53:01.803Z,67.80
2022-08-02T08:55:30.469Z,70.60
2022-08-02T08:57:59.538Z,72.40
2022-08-02T09:00:27.674Z,70.60
2022-08-02T09:02:55.078Z,72.20
2022-08-02T09:05:22.347Z,71.10
2022-08-02T09:07:51.360Z,70.50
2022-08-02T09:10:47.065Z,68.20
2022-08-02T09:13:43.568Z,64.40
2022-08-02T09:16:10.929Z,60.50
2022-08-02T09:18:45.720Z,59.90
2022-08-02T09:21:15.013Z,60.00
2022-08-02T09:23:48.576Z,59.70
2022-08-02T09:26:18.675Z,59.10
2022-08-02T09:28:50.087Z,57.30
2022-08-02T09:31:23.846Z,55.90
2022-08-02T09:33:56.317Z,54.60
2022-08-02T09:36:24.470Z,52.10
2022-08-02T09:39:01.582Z,51.90
2022-08-02T09:41:35.281Z,52.20
2022-08-02T09:44:06.723Z,54.70
2022-08-02T09:46:40.354Z,53.90
2022-08-02T09:49:13.178Z,53.30
2022-08-02T09:51:50.282Z,54.10
2022-08-02T09:54:20.188Z,59.10
2022-08-02T09:56:52.508Z,61.80
2022-08-02T09:59:21.038Z,64.00
2022-08-02T10:01:51.496Z,65.80
2022-08-02T10:04:52.147Z,66.80
2022-08-02T10:07:22.448Z,65.20
2022-08-02T10:09:50.888Z,65.40
2022-08-02T10:12:19.077Z,64.40
2022-08-02T10:14:46.190Z,63.80
2022-08-02T10:17:15.422Z,63.40
2022-08-02T10:20:00.508Z,61.30
2022-08-02T10:22:30.036Z,62.60
2022-08-02T10:24:57.111Z,62.50
2022-08-02T10:27:25.801Z,60.20
2022-08-02T10:29:57.776Z,59.80
2022-08-02T10:32:31.608Z,59.70
2022-08-02T10:35:18.612Z,59.80
2022-08-02T10:37:54.171Z,61.70
2022-08-02T10:40:26.222Z,63.60
2022-08-02T10:42:55.174Z,64.80
2022-08-02T10:45:23.162Z,63.60
2022-08-02T10:48:03.841Z,61.80
2022-08-02T10:50:46.319Z,63.10
2022-08-02T10:53:39.539Z,62.20
2022-08-02T10:56:09.393Z,64.60
2022-08-02T10:58:36.433Z,64.30
2022-08-02T11:01:05.624Z,63.80
2022-08-02T11:03:33.597Z,64.00
2022-08-02T11:06:25.098Z,64.30
2022-08-02T11:09:32.511Z,64.60
2022-08-02T11:12:09.325Z,64.80
2022-08-02T11:14:39.827Z,63.60
2022-08-02T11:17:14.014Z,63.40
2022-08-02T11:20:12.246Z,64.50
2022-08-02T11:22:40.527Z,63.70
2022-08-02T11:25:22.928Z,65.90
2022-08-02T11:27:58.431Z,64.50
2022-08-02T11:30:27.324Z,66.70
2022-08-02T11:32:59.096Z,67.60
2022-08-02T11:35:38.680Z,68.00
2022-08-02T11:38:20.270Z,68.10
2022-08-02T11:40:48.585Z,68.40
2022-08-02T11:43:17.784Z,70.10
2022-08-02T11:45:44.976Z,70.00
2022-08-02T11:48:12.197Z,72.30
2022-08-02T11:50:39.393Z,71.00
2022-08-02T11:53:16.476Z,71.00
2022-08-02T11:55:43.682Z,71.80
2022-08-02T11:58:11.824Z,73.10
2022-08-02T12:00:39.094Z,71.20
2022-08-02T12:03:07.629Z,71.40
2022-08-02T12:06:03.088Z,73.60
2022-08-02T12:08:25.714Z,74.50
2022-08-02T12:10:52.804Z,73.60
2022-08-02T12:13:19.812Z,70.90
2022-08-02T12:15:47.467Z,71.90
2022-08-02T12:18:35.573Z,72.10
2022-08-02T12:21:20.432Z,70.90
2022-08-02T12:23:58.771Z,72.70
2022-08-02T12:26:28.513Z,72.80
2022-08-02T12:28:59.908Z,72.30
2022-08-02T12:31:56.847Z,72.40
2022-08-02T12:34:31.885Z,70.70
2022-08-02T12:37:10.610Z,70.60
2022-08-02T12:39:43.484Z,71.00
2022-08-02T12:42:12.657Z,70.60
2022-08-02T12:45:00.829Z,71.50
2022-08-02T12:47:35.843Z,71.50
2022-08-02T12:50:12.213Z,70.90
2022-08-02T12:52:39.358Z,69.70
2022-08-02T12:55:25.823Z,69.70
2022-08-02T12:58:12.854Z,69.80
2022-08-02T13:00:40.498Z,70.90
2022-08-02T13:03:11.657Z,71.00
2022-08-02T13:05:56.959Z,70.50
2022-08-02T13:08:24.965Z,71.40
2022-08-02T13:10:51.924Z,72.10
2022-08-02T13:13:19.031Z,71.40
2022-08-02T13:15:50.256Z,71.90
2022-08-02T13:18:18.483Z,70.90
2022-08-02T13:20:45.979Z,70.90
2022-08-02T13:23:21.502Z,70.60
2022-08-02T13:25:52.818Z,71.30
2022-08-02T13:28:20.332Z,72.10
2022-08-02T13:30:47.744Z,71.30
2022-08-02T13:33:15.964Z,71.60
2022-08-02T13:35:44.324Z,72.80
2022-08-02T13:38:11.367Z,72.00
2022-08-02T13:41:04.356Z,70.80
2022-08-02T13:43:52.855Z,72.10
2022-08-02T13:46:29.061Z,71.40
2022-08-02T13:48:56.941Z,71.40
2022-08-02T13:51:24.183Z,71.80
2022-08-02T13:53:51.136Z,73.20
2022-08-02T13:56:18.076Z,72.20
2022-08-02T13:58:45.265Z,72.90
2022-08-02T14:01:12.215Z,70.00
2022-08-02T14:04:07.348Z,71.00
2022-08-02T14:06:26.575Z,68.80
2022-08-02T14:08:53.631Z,64.40
2022-08-02T14:11:20.603Z,60.40
2022-08-02T14:13:47.684Z,57.90
2022-08-02T14:16:14.626Z,55.40
2022-08-02T14:18:41.545Z,53.50
2022-08-02T14:21:08.644Z,52.20
2022-08-02T14:23:48.993Z,50.90
2022-08-02T14:26:27.125Z,50.30
2022-08-02T14:28:55.518Z,50.30
2022-08-02T14:31:22.776Z,49.10
2022-08-02T14:33:50.098Z,49.60
2022-08-02T14:36:27.111Z,49.20
2022-08-02T14:38:56.472Z,49.50
2022-08-02T14:41:23.725Z,49.00
2022-08-02T14:44:05.958Z,48.00
2022-08-02T14:46:35.827Z,48.30
2022-08-02T14:49:04.070Z,47.90
2022-08-02T14:51:32.293Z,48.80
2022-08-02T14:54:02.806Z,48.50
2022-08-02T14:56:30.737Z,48.80
2022-08-02T14:58:58.023Z,49.50
2022-08-02T15:01:26.082Z,50.10
2022-08-02T15:03:53.616Z,50.90
2022-08-02T15:06:20.670Z,51.70
2022-08-02T15:08:47.741Z,52.50
2022-08-02T15:11:15.060Z,53.00
2022-08-02T15:13:42.729Z,54.90
2022-08-02T15:16:10.057Z,55.00
2022-08-02T15:18:37.122Z,57.50
2022-08-02T15:21:09.737Z,59.90
2022-08-02T15:23:51.235Z,61.70
2022-08-02T15:26:20.768Z,61.70
2022-08-02T15:28:48.487Z,61.30
2022-08-02T15:31:33.357Z,62.40
2022-08-02T15:34:02.514Z,63.90
2022-08-02T15:36:29.862Z,63.50
2022-08-02T15:38:57.670Z,63.40
2022-08-02T15:41:25.154Z,65.10
2022-08-02T15:44:00.826Z,63.40
2022-08-02T15:46:30.775Z,62.60
2022-08-02T15:49:00.015Z,63.80
2022-08-02T15:51:27.304Z,63.60
2022-08-02T15:53:54.255Z,64.70
2022-08-02T15:56:24.027Z,65.40
2022-08-02T15:58:56.869Z,66.10
2022-08-02T16:01:32.109Z,65.00
2022-08-02T16:04:04.758Z,63.30
2022-08-02T16:06:31.831Z,63.80
2022-08-02T16:08:58.735Z,63.40
2022-08-02T16:11:25.675Z,64.40
2022-08-02T16:13:55.563Z,65.70
2022-08-02T16:16:26.041Z,65.40
2022-08-02T16:18:53.950Z,65.70
2022-08-02T16:21:22.886Z,65.70
2022-08-02T16:24:01.891Z,65.50
2022-08-02T16:26:31.754Z,64.60
2022-08-02T16:28:59.920Z,64.20
2022-08-02T16:31:26.927Z,65.10
2022-08-02T16:33:55.897Z,64.90
2022-08-02T16:36:25.151Z,64.90
2022-08-02T16:38:55.799Z,64.70
2022-08-02T16:41:23.165Z,66.30
2022-08-02T16:44:10.829Z,66.20
2022-08-02T16:46:37.988Z,65.60
2022-08-02T16:49:05.154Z,65.30
2022-08-02T16:51:53.369Z,65.60
2022-08-02T16:54:20.290Z,65.80
2022-08-02T16:56:47.243Z,66.50
2022-08-02T16:59:16.186Z,66.30
2022-08-02T17:02:11.717Z,64.40
2022-08-02T17:04:30.253Z,64.00
2022-08-02T17:07:00.119Z,64.10
2022-08-02T17:10:03.639Z,64.30
2022-08-02T17:12:16.964Z,65.80
2022-08-02T17:14:55.166Z,64.50
2022-08-02T17:17:34.059Z,65.40
2022-08-02T17:20:02.433Z,66.20
2022-08-02T17:22:29.538Z,66.70
2022-08-02T17:24:56.684Z,67.00
2022-08-02T17:27:26.752Z,67.50
2022-08-02T17:29:53.952Z,67.80
2022-08-02T17:32:20.906Z,67.90
2022-08-02T17:34:48.876Z,67.60
2022-08-02T17:37:38.687Z,67.70
2022-08-02T17:40:09.609Z,68.60
2022-08-02T17:42:37.191Z,69.40
2022-08-02T17:45:16.157Z,70.10
2022-08-02T17:48:03.854Z,70.50
2022-08-02T17:50:31.365Z,71.00
2022-08-02T17:52:59.110Z,71.60
2022-08-02T17:55:26.271Z,71.90
2022-08-02T17:57:57.115Z,72.30
2022-08-02T18:00:35.141Z,72.80
2022-08-02T18:03:05.464Z,72.70
2022-08-02T18:05:40.415Z,73.10
2022-08-02T18:08:22.881Z,73.40
2022-08-02T18:10:50.817Z,74.50
2022-08-02T18:13:17.710Z,75.00
2022-08-02T18:15:45.434Z,76.00
2022-08-02T18:18:14.547Z,80.60
2022-08-02T18:20:42.048Z,84.30
2022-08-02T18:23:13.431Z,88.40
2022-08-02T18:25:46.717Z,90.50
2022-08-02T18:28:15.141Z,91.40
2022-08-02T18:30:43.173Z,91.00
2022-08-02T18:33:55.551Z,91.00
2022-08-02T18:35:58.151Z,91.90
2022-08-02T18:38:27.823Z,92.50
2022-08-02T18:40:55.301Z,93.00
2022-08-02T18:43:25.370Z,94.20
2022-08-02T18:46:07.081Z,97.70
2022-08-02T18:54:30.678Z,99.90
2022-08-02T18:57:00.924Z,99.90
2022-08-02T18:59:36.704Z,99.90
2022-08-02T19:02:04.565Z,99.90
2022-08-02T19:04:31.469Z,99.90
2022-08-02T19:07:05.391Z,99.90
2022-08-02T19:09:34.802Z,99.90
2022-08-02T19:12:03.609Z,99.90
2022-08-02T19:14:30.847Z,99.90
2022-08-02T19:17:00.432Z,99.90
2022-08-02T19:19:44.251Z,99.90
2022-08-02T19:22:18.126Z,99.90
2022-08-02T19:25:01.512Z,99.90
2022-08-02T19:27:32.581Z,99.90
2022-08-02T19:30:02.305Z,99.90
2022-08-02T19:32:39.624Z,99.90
2022-08-02T19:35:19.365Z,99.90
2022-08-02T19:38:06.256Z,99.90
2022-08-02T19:40:33.704Z,99.90
2022-08-02T19:44:25.301Z,99.90
2022-08-02T19:45:49.810Z,99.90
2022-08-02T19:48:24.399Z,99.90
2022-08-02T19:50:56.603Z,99.90
2022-08-02T19:53:48.094Z,99.90
2022-08-02T19:56:20.501Z,99.90
2022-08-02T19:58:51.552Z,99.90
2022-08-02T20:01:26.967Z,99.90
2022-08-02T20:04:05.352Z,99.90
2022-08-02T20:06:32.601Z,99.90
2022-08-02T20:09:01.216Z,99.90
2022-08-02T20:11:34.778Z,99.90
2022-08-02T20:14:07.145Z,99.90
2022-08-02T20:16:35.432Z,99.90
2022-08-02T20:19:03.832Z,99.90
2022-08-02T20:21:35.803Z,99.90
2022-08-02T20:24:07.746Z,99.90
2022-08-02T20:26:35.790Z,99.90
2022-08-02T20:29:05.328Z,99.90
2022-08-02T20:31:32.853Z,99.90
2022-08-02T20:34:00.240Z,99.90
2022-08-02T20:36:28.154Z,99.90
2022-08-02T20:38:55.995Z,99.90
2022-08-02T20:41:23.901Z,99.90
2022-08-02T20:44:04.370Z,99.90
2022-08-02T20:46:44.013Z,99.90
2022-08-02T20:49:21.703Z,99.90
2022-08-02T20:51:50.335Z,99.90
2022-08-02T20:54:20.790Z,99.90
2022-08-02T20:56:50.634Z,99.90
2022-08-02T20:59:18.123Z,99.90
2022-08-02T21:01:57.240Z,99.90
2022-08-02T21:04:26.527Z,99.90
2022-08-02T21:06:55.785Z,99.90
2022-08-02T21:09:33.060Z,99.90
2022-08-02T21:12:12.535Z,99.90
2022-08-02T21:14:41.555Z,99.90
2022-08-02T21:17:10.549Z,99.90
2022-08-02T21:19:44.396Z,99.90
2022-08-02T21:22:11.410Z,99.90
2022-08-02T21:24:39.290Z,99.90
2022-08-02T21:27:06.273Z,99.90
2022-08-02T21:29:53.560Z,99.90
2022-08-02T21:32:21.636Z,99.90
2022-08-02T21:34:49.455Z,99.90
2022-08-02T21:37:16.907Z,99.90
2022-08-02T21:39:43.884Z,99.90
2022-08-02T21:42:22.675Z,99.90
2022-08-02T21:44:51.296Z,99.90
2022-08-02T21:47:27.662Z,99.90
2022-08-02T21:50:12.762Z,99.90
2022-08-02T21:52:42.262Z,99.90
2022-08-02T21:55:21.201Z,99.90
2022-08-02T21:57:50.995Z,99.90
2022-08-02T22:00:18.005Z,99.90
2022-08-02T22:02:56.104Z,99.90
2022-08-02T22:05:23.248Z,99.90
2022-08-02T22:07:50.540Z,99.90
2022-08-02T22:10:18.100Z,99.90
2022-08-02T22:12:45.091Z,99.90
2022-08-02T22:15:12.084Z,99.90
2022-08-02T22:17:51.656Z,99.90
2022-08-02T22:20:21.289Z,99.90
2022-08-02T22:22:50.588Z,99.90
2022-08-02T22:25:26.827Z,99.90
2022-08-02T22:28:38.685Z,99.90
2022-08-02T22:30:57.449Z,99.90
2022-08-02T22:33:47.322Z,99.90
2022-08-02T22:39:19.246Z,99.90
2022-08-02T22:42:06.508Z,99.90
2022-08-02T22:44:35.338Z,99.90
2022-08-02T22:47:06.986Z,99.90
2022-08-02T22:49:38.003Z,99.90
2022-08-02T22:52:14.267Z,99.90
2022-08-02T22:54:43.404Z,99.90
2022-08-02T22:57:11.558Z,99.90
2022-08-02T22:58:45.656Z,99.90
2022-08-02T22:58:58.464Z,99.90
2022-08-02T22:59:09.520Z,99.90
2022-08-02T22:59:40.642Z,99.90
2022-08-02T23:02:09.200Z,99.90
2022-08-02T23:04:36.800Z,99.90
2022-08-02T23:07:04.168Z,99.90
2022-08-02T23:09:31.059Z,99.90
2022-08-02T23:11:57.971Z,99.90
2022-08-02T23:14:25.063Z,99.90
2022-08-02T23:17:10.377Z,99.90
2022-08-02T23:19:53.062Z,99.90
2022-08-02T23:22:30.080Z,99.90
2022-08-02T23:25:01.593Z,99.90
2022-08-02T23:27:29.516Z,99.90
2022-08-02T23:29:56.699Z,99.90
2022-08-02T23:32:25.484Z,99.90
2022-08-02T23:34:53.687Z,99.90
2022-08-02T23:37:21.117Z,99.90
2022-08-02T23:39:48.635Z,99.90
2022-08-02T23:42:15.902Z,99.90
2022-08-02T23:44:42.987Z,99.90
2022-08-02T23:47:11.078Z,99.90
2022-08-02T23:49:38.374Z,99.90
2022-08-02T23:52:07.803Z,99.90
2022-08-02T23:54:34.930Z,99.90
2022-08-02T23:57:20.805Z,99.90
2022-08-02T23:59:50.072Z,99.90
